sensor_id;sensor_type;location;lat;lon;timestamp;temperature;humidity
42421;DHT22;28063;48.140;11.588;2022-09-23T00:00:41;7.80;99.50
42421;DHT22;28063;48.140;11.588;2022-09-23T00:03:07;7.70;99.60
42421;DHT22;28063;48.140;11.588;2022-09-23T00:05:33;7.70;99.70
42421;DHT22;28063;48.140;11.588;2022-09-23T00:07:59;7.70;99.90
42421;DHT22;28063;48.140;11.588;2022-09-23T00:10:26;7.70;99.90
42421;DHT22;28063;48.140;11.588;2022-09-23T00:12:53;7.60;99.90
42421;DHT22;28063;48.140;11.588;2022-09-23T00:15:19;7.60;99.90
42421;DHT22;28063;48.140;11.588;2022-09-23T00:17:46;7.60;99.90
42421;DHT22;28063;48.140;11.588;2022-09-23T00:20:12;7.50;99.90
42421;DHT22;28063;48.140;11.588;2022-09-23T00:22:39;7.50;99.90
42421;DHT22;28063;48.140;11.588;2022-09-23T00:25:06;7.50;99.90
42421;DHT22;28063;48.140;11.588;2022-09-23T00:27:34;7.50;99.90
42421;DHT22;28063;48.140;11.588;2022-09-23T00:30:00;7.40;99.90
42421;DHT22;28063;48.140;11.588;2022-09-23T00:32:26;7.40;99.90
42421;DHT22;28063;48.140;11.588;2022-09-23T00:34:52;7.40;99.90
42421;DHT22;28063;48.140;11.588;2022-09-23T00:37:19;7.40;99.90
42421;DHT22;28063;48.140;11.588;2022-09-23T00:39:45;7.40;99.90
42421;DHT22;28063;48.140;11.588;2022-09-23T00:42:14;7.40;99.90
42421;DHT22;28063;48.140;11.588;2022-09-23T00:50:23;7.30;99.90
42421;DHT22;28063;48.140;11.588;2022-09-23T00:52:52;7.30;99.90
42421;DHT22;28063;48.140;11.588;2022-09-23T00:55:22;7.20;99.90
42421;DHT22;28063;48.140;11.588;2022-09-23T00:57:52;7.20;99.90
42421;DHT22;28063;48.140;11.588;2022-09-23T01:00:19;7.10;99.90
42421;DHT22;28063;48.140;11.588;2022-09-23T01:02:45;7.10;99.90
42421;DHT22;28063;48.140;11.588;2022-09-23T01:05:12;7.10;99.90
42421;DHT22;28063;48.140;11.588;2022-09-23T01:07:38;7.00;99.90
42421;DHT22;28063;48.140;11.588;2022-09-23T01:10:04;7.00;99.90
42421;DHT22;28063;48.140;11.588;2022-09-23T01:31:48;6.90;99.90
42421;DHT22;28063;48.140;11.588;2022-09-23T01:37:22;6.80;99.90
42421;DHT22;28063;48.140;11.588;2022-09-23T01:40:06;6.80;99.90
42421;DHT22;28063;48.140;11.588;2022-09-23T01:45:19;6.80;99.90
42421;DHT22;28063;48.140;11.588;2022-09-23T01:47:59;6.70;99.90
42421;DHT22;28063;48.140;11.588;2022-09-23T01:50:30;6.60;99.90
42421;DHT22;28063;48.140;11.588;2022-09-23T01:53:27;6.60;99.90
42421;DHT22;28063;48.140;11.588;2022-09-23T01:55:56;6.40;99.90
42421;DHT22;28063;48.140;11.588;2022-09-23T02:01:00;6.40;99.90
42421;DHT22;28063;48.140;11.588;2022-09-23T02:06:20;6.30;99.90
42421;DHT22;28063;48.140;11.588;2022-09-23T02:09:03;6.30;99.90
42421;DHT22;28063;48.140;11.588;2022-09-23T02:11:32;6.30;99.90
42421;DHT22;28063;48.140;11.588;2022-09-23T02:14:23;6.30;99.90
42421;DHT22;28063;48.140;11.588;2022-09-23T02:16:55;6.30;99.90
42421;DHT22;28063;48.140;11.588;2022-09-23T02:22:01;6.30;99.90
42421;DHT22;28063;48.140;11.588;2022-09-23T02:24:31;6.20;99.90
42421;DHT22;28063;48.140;11.588;2022-09-23T02:38:09;6.30;99.90
42421;DHT22;28063;48.140;11.588;2022-09-23T02:43:21;6.30;99.90
42421;DHT22;28063;48.140;11.588;2022-09-23T02:45:49;6.20;99.90
42421;DHT22;28063;48.140;11.588;2022-09-23T02:48:25;6.20;99.90
42421;DHT22;28063;48.140;11.588;2022-09-23T02:50:52;6.20;99.90
42421;DHT22;28063;48.140;11.588;2022-09-23T02:53:18;6.10;99.90
42421;DHT22;28063;48.140;11.588;2022-09-23T02:55:43;6.10;99.90
42421;DHT22;28063;48.140;11.588;2022-09-23T02:58:11;6.10;99.90
42421;DHT22;28063;48.140;11.588;2022-09-23T03:03:38;6.10;99.90
42421;DHT22;28063;48.140;11.588;2022-09-23T03:06:52;6.00;99.90
42421;DHT22;28063;48.140;11.588;2022-09-23T03:09:30;6.10;99.90
42421;DHT22;28063;48.140;11.588;2022-09-23T03:12:27;6.00;99.90
42421;DHT22;28063;48.140;11.588;2022-09-23T03:17:33;6.00;99.90
42421;DHT22;28063;48.140;11.588;2022-09-23T03:20:08;6.10;99.90
42421;DHT22;28063;48.140;11.588;2022-09-23T03:22:45;6.00;99.90
42421;DHT22;28063;48.140;11.588;2022-09-23T03:25:16;6.00;99.90
42421;DHT22;28063;48.140;11.588;2022-09-23T03:27:44;6.00;99.90
42421;DHT22;28063;48.140;11.588;2022-09-23T03:30:10;6.00;99.90
42421;DHT22;28063;48.140;11.588;2022-09-23T03:32:38;5.90;99.90
42421;DHT22;28063;48.140;11.588;2022-09-23T03:35:06;5.90;99.90
42421;DHT22;28063;48.140;11.588;2022-09-23T03:37:37;5.80;99.90
42421;DHT22;28063;48.140;11.588;2022-09-23T03:40:37;5.80;99.90
42421;DHT22;28063;48.140;11.588;2022-09-23T03:43:06;5.80;99.90
42421;DHT22;28063;48.140;11.588;2022-09-23T03:45:33;5.90;99.90
42421;DHT22;28063;48.140;11.588;2022-09-23T03:48:00;5.80;99.90
42421;DHT22;28063;48.140;11.588;2022-09-23T03:50:26;5.80;99.90
42421;DHT22;28063;48.140;11.588;2022-09-23T03:52:52;5.80;99.90
42421;DHT22;28063;48.140;11.588;2022-09-23T03:55:18;5.70;99.90
42421;DHT22;28063;48.140;11.588;2022-09-23T03:57:45;5.70;99.90
42421;DHT22;28063;48.140;11.588;2022-09-23T04:00:12;5.70;99.90
42421;DHT22;28063;48.140;11.588;2022-09-23T04:02:38;5.60;99.90
42421;DHT22;28063;48.140;11.588;2022-09-23T04:05:05;5.60;99.90
42421;DHT22;28063;48.140;11.588;2022-09-23T04:07:31;5.50;99.90
42421;DHT22;28063;48.140;11.588;2022-09-23T04:09:56;5.50;99.90
42421;DHT22;28063;48.140;11.588;2022-09-23T04:12:23;5.50;99.90
42421;DHT22;28063;48.140;11.588;2022-09-23T04:14:49;5.50;99.90
42421;DHT22;28063;48.140;11.588;2022-09-23T04:17:14;5.50;99.90
42421;DHT22;28063;48.140;11.588;2022-09-23T04:19:40;5.40;99.90
42421;DHT22;28063;48.140;11.588;2022-09-23T04:22:06;5.40;99.90
42421;DHT22;28063;48.140;11.588;2022-09-23T04:24:32;5.40;99.90
42421;DHT22;28063;48.140;11.588;2022-09-23T04:26:58;5.40;99.90
42421;DHT22;28063;48.140;11.588;2022-09-23T04:29:25;5.40;99.90
42421;DHT22;28063;48.140;11.588;2022-09-23T04:31:51;5.40;99.90
42421;DHT22;28063;48.140;11.588;2022-09-23T04:34:18;5.40;99.90
42421;DHT22;28063;48.140;11.588;2022-09-23T04:36:44;5.50;99.90
42421;DHT22;28063;48.140;11.588;2022-09-23T04:39:11;5.50;99.90
42421;DHT22;28063;48.140;11.588;2022-09-23T04:41:37;5.60;99.90
42421;DHT22;28063;48.140;11.588;2022-09-23T04:44:03;5.60;99.90
42421;DHT22;28063;48.140;11.588;2022-09-23T04:46:29;5.50;99.90
42421;DHT22;28063;48.140;11.588;2022-09-23T04:48:55;5.50;99.90
42421;DHT22;28063;48.140;11.588;2022-09-23T04:51:22;5.50;99.90
42421;DHT22;28063;48.140;11.588;2022-09-23T04:53:49;5.40;99.90
42421;DHT22;28063;48.140;11.588;2022-09-23T04:56:21;5.40;99.90
42421;DHT22;28063;48.140;11.588;2022-09-23T04:58:48;5.40;99.90
42421;DHT22;28063;48.140;11.588;2022-09-23T05:03:44;5.40;99.90
42421;DHT22;28063;48.140;11.588;2022-09-23T05:06:12;5.50;99.90
42421;DHT22;28063;48.140;11.588;2022-09-23T05:08:39;5.50;99.90
42421;DHT22;28063;48.140;11.588;2022-09-23T05:11:05;5.60;99.90
42421;DHT22;28063;48.140;11.588;2022-09-23T05:13:31;5.60;99.90
42421;DHT22;28063;48.140;11.588;2022-09-23T05:16:03;5.70;99.90
42421;DHT22;28063;48.140;11.588;2022-09-23T05:18:36;5.70;99.90
42421;DHT22;28063;48.140;11.588;2022-09-23T05:21:07;5.70;99.90
42421;DHT22;28063;48.140;11.588;2022-09-23T05:23:35;5.70;99.90
42421;DHT22;28063;48.140;11.588;2022-09-23T05:26:09;5.70;99.90
42421;DHT22;28063;48.140;11.588;2022-09-23T05:28:35;5.70;99.90
42421;DHT22;28063;48.140;11.588;2022-09-23T05:31:11;5.80;99.90
42421;DHT22;28063;48.140;11.588;2022-09-23T05:33:43;5.80;99.90
42421;DHT22;28063;48.140;11.588;2022-09-23T05:36:09;5.90;99.90
42421;DHT22;28063;48.140;11.588;2022-09-23T05:38:35;5.90;99.90
42421;DHT22;28063;48.140;11.588;2022-09-23T05:41:07;5.90;99.90
42421;DHT22;28063;48.140;11.588;2022-09-23T05:43:33;6.00;99.90
42421;DHT22;28063;48.140;11.588;2022-09-23T05:46:16;6.00;99.90
42421;DHT22;28063;48.140;11.588;2022-09-23T05:48:42;6.10;99.90
42421;DHT22;28063;48.140;11.588;2022-09-23T05:51:18;6.10;99.90
42421;DHT22;28063;48.140;11.588;2022-09-23T05:53:44;6.20;99.90
42421;DHT22;28063;48.140;11.588;2022-09-23T05:56:15;6.20;99.90
42421;DHT22;28063;48.140;11.588;2022-09-23T05:58:41;6.20;99.90
42421;DHT22;28063;48.140;11.588;2022-09-23T06:01:14;6.30;99.90
42421;DHT22;28063;48.140;11.588;2022-09-23T06:03:45;6.40;99.90
42421;DHT22;28063;48.140;11.588;2022-09-23T06:06:12;6.40;99.90
42421;DHT22;28063;48.140;11.588;2022-09-23T06:08:39;6.40;99.90
42421;DHT22;28063;48.140;11.588;2022-09-23T06:11:06;6.50;99.90
42421;DHT22;28063;48.140;11.588;2022-09-23T06:13:36;6.60;99.90
42421;DHT22;28063;48.140;11.588;2022-09-23T06:16:13;6.60;99.90
42421;DHT22;28063;48.140;11.588;2022-09-23T06:18:40;6.70;99.90
42421;DHT22;28063;48.140;11.588;2022-09-23T06:21:06;6.80;99.90
42421;DHT22;28063;48.140;11.588;2022-09-23T06:23:32;6.80;99.90
42421;DHT22;28063;48.140;11.588;2022-09-23T06:26:04;6.90;99.90
42421;DHT22;28063;48.140;11.588;2022-09-23T06:28:35;7.00;99.90
42421;DHT22;28063;48.140;11.588;2022-09-23T06:31:07;7.10;99.90
42421;DHT22;28063;48.140;11.588;2022-09-23T06:33:59;7.10;99.90
42421;DHT22;28063;48.140;11.588;2022-09-23T06:36:25;7.10;99.90
42421;DHT22;28063;48.140;11.588;2022-09-23T06:38:51;7.20;99.90
42421;DHT22;28063;48.140;11.588;2022-09-23T06:41:17;7.20;99.90
42421;DHT22;28063;48.140;11.588;2022-09-23T06:43:45;7.30;99.90
42421;DHT22;28063;48.140;11.588;2022-09-23T06:46:36;7.40;99.90
42421;DHT22;28063;48.140;11.588;2022-09-23T06:49:02;7.50;99.90
42421;DHT22;28063;48.140;11.588;2022-09-23T06:51:40;7.60;99.90
42421;DHT22;28063;48.140;11.588;2022-09-23T06:54:06;7.60;99.90
42421;DHT22;28063;48.140;11.588;2022-09-23T06:57:02;7.70;99.90
42421;DHT22;28063;48.140;11.588;2022-09-23T06:59:28;7.80;99.90
42421;DHT22;28063;48.140;11.588;2022-09-23T07:02:26;7.90;99.90
42421;DHT22;28063;48.140;11.588;2022-09-23T07:04:52;8.00;99.90
42421;DHT22;28063;48.140;11.588;2022-09-23T07:07:21;8.20;99.90
42421;DHT22;28063;48.140;11.588;2022-09-23T07:09:47;8.30;99.90
42421;DHT22;28063;48.140;11.588;2022-09-23T07:12:13;8.40;99.90
42421;DHT22;28063;48.140;11.588;2022-09-23T07:14:38;8.60;99.60
42421;DHT22;28063;48.140;11.588;2022-09-23T07:17:05;8.80;99.10
42421;DHT22;28063;48.140;11.588;2022-09-23T07:19:30;8.90;98.70
42421;DHT22;28063;48.140;11.588;2022-09-23T07:22:32;9.10;98.30
42421;DHT22;28063;48.140;11.588;2022-09-23T07:25:01;9.30;98.00
42421;DHT22;28063;48.140;11.588;2022-09-23T07:27:29;9.50;97.50
42421;DHT22;28063;48.140;11.588;2022-09-23T07:30:14;9.70;97.00
42421;DHT22;28063;48.140;11.588;2022-09-23T07:33:16;9.90;96.40
42421;DHT22;28063;48.140;11.588;2022-09-23T07:36:21;10.10;95.80
42421;DHT22;28063;48.140;11.588;2022-09-23T07:39:06;10.30;95.30
42421;DHT22;28063;48.140;11.588;2022-09-23T07:41:34;10.50;94.60
42421;DHT22;28063;48.140;11.588;2022-09-23T07:47:42;11.00;93.20
42421;DHT22;28063;48.140;11.588;2022-09-23T07:50:41;11.30;92.50
42421;DHT22;28063;48.140;11.588;2022-09-23T07:53:24;11.50;91.70
42421;DHT22;28063;48.140;11.588;2022-09-23T07:55:54;11.70;91.20
42421;DHT22;28063;48.140;11.588;2022-09-23T07:58:34;11.80;90.50
42421;DHT22;28063;48.140;11.588;2022-09-23T08:01:05;12.00;90.00
42421;DHT22;28063;48.140;11.588;2022-09-23T08:03:38;12.20;89.40
42421;DHT22;28063;48.140;11.588;2022-09-23T08:06:22;12.40;88.90
42421;DHT22;28063;48.140;11.588;2022-09-23T08:09:03;12.70;87.20
42421;DHT22;28063;48.140;11.588;2022-09-23T08:11:42;12.90;86.00
42421;DHT22;28063;48.140;11.588;2022-09-23T08:14:13;13.10;84.80
42421;DHT22;28063;48.140;11.588;2022-09-23T08:16:43;13.30;83.70
42421;DHT22;28063;48.140;11.588;2022-09-23T08:20:10;13.40;82.40
42421;DHT22;28063;48.140;11.588;2022-09-23T08:23:01;13.70;81.40
42421;DHT22;28063;48.140;11.588;2022-09-23T08:25:33;14.00;79.90
42421;DHT22;28063;48.140;11.588;2022-09-23T08:28:01;14.20;78.90
42421;DHT22;28063;48.140;11.588;2022-09-23T08:30:30;14.40;78.00
42421;DHT22;28063;48.140;11.588;2022-09-23T08:32:56;14.70;77.00
42421;DHT22;28063;48.140;11.588;2022-09-23T08:35:21;14.90;75.90
42421;DHT22;28063;48.140;11.588;2022-09-23T08:37:47;15.00;74.80
42421;DHT22;28063;48.140;11.588;2022-09-23T08:40:13;15.10;73.90
42421;DHT22;28063;48.140;11.588;2022-09-23T08:42:42;15.20;73.20
42421;DHT22;28063;48.140;11.588;2022-09-23T08:45:18;15.30;72.80
42421;DHT22;28063;48.140;11.588;2022-09-23T08:47:59;15.50;71.80
42421;DHT22;28063;48.140;11.588;2022-09-23T08:50:39;15.50;71.50
42421;DHT22;28063;48.140;11.588;2022-09-23T08:53:27;15.60;69.80
42421;DHT22;28063;48.140;11.588;2022-09-23T08:55:55;15.60;70.10
42421;DHT22;28063;48.140;11.588;2022-09-23T09:05:09;16.40;69.40
42421;DHT22;28063;48.140;11.588;2022-09-23T09:07:48;16.60;68.00
42421;DHT22;28063;48.140;11.588;2022-09-23T09:10:34;16.80;66.90
42421;DHT22;28063;48.140;11.588;2022-09-23T09:23:54;16.80;65.00
42421;DHT22;28063;48.140;11.588;2022-09-23T09:26:31;16.70;66.00
42421;DHT22;28063;48.140;11.588;2022-09-23T09:29:26;17.00;65.70
42421;DHT22;28063;48.140;11.588;2022-09-23T09:35:37;17.80;63.10
42421;DHT22;28063;48.140;11.588;2022-09-23T09:38:27;18.00;62.20
42421;DHT22;28063;48.140;11.588;2022-09-23T09:40:54;18.10;62.00
42421;DHT22;28063;48.140;11.588;2022-09-23T09:43:24;18.00;61.80
42421;DHT22;28063;48.140;11.588;2022-09-23T09:49:31;17.80;62.50
42421;DHT22;28063;48.140;11.588;2022-09-23T09:52:24;17.80;62.90
42421;DHT22;28063;48.140;11.588;2022-09-23T10:04:52;18.60;62.60
42421;DHT22;28063;48.140;11.588;2022-09-23T10:15:11;21.20;56.20
42421;DHT22;28063;48.140;11.588;2022-09-23T10:18:36;20.80;56.40
42421;DHT22;28063;48.140;11.588;2022-09-23T10:25:02;21.50;54.30
42421;DHT22;28063;48.140;11.588;2022-09-23T10:27:34;21.70;53.40
42421;DHT22;28063;48.140;11.588;2022-09-23T10:30:20;21.50;52.70
42421;DHT22;28063;48.140;11.588;2022-09-23T10:32:46;20.90;53.80
42421;DHT22;28063;48.140;11.588;2022-09-23T10:35:14;20.50;54.60
42421;DHT22;28063;48.140;11.588;2022-09-23T10:40:31;19.70;55.60
42421;DHT22;28063;48.140;11.588;2022-09-23T10:43:26;19.50;57.10
42421;DHT22;28063;48.140;11.588;2022-09-23T10:46:35;19.40;57.10
42421;DHT22;28063;48.140;11.588;2022-09-23T10:49:15;19.30;56.90
42421;DHT22;28063;48.140;11.588;2022-09-23T11:01:14;19.50;55.70
42421;DHT22;28063;48.140;11.588;2022-09-23T11:17:08;19.80;54.80
42421;DHT22;28063;48.140;11.588;2022-09-23T11:25:28;20.30;54.30
42421;DHT22;28063;48.140;11.588;2022-09-23T11:28:09;20.80;53.50
42421;DHT22;28063;48.140;11.588;2022-09-23T11:33:58;21.50;51.10
42421;DHT22;28063;48.140;11.588;2022-09-23T11:36:33;21.50;51.10
42421;DHT22;28063;48.140;11.588;2022-09-23T11:39:16;21.30;51.60
42421;DHT22;28063;48.140;11.588;2022-09-23T11:41:43;21.20;52.00
42421;DHT22;28063;48.140;11.588;2022-09-23T11:47:01;20.90;53.30
42421;DHT22;28063;48.140;11.588;2022-09-23T11:49:37;21.00;53.50
42421;DHT22;28063;48.140;11.588;2022-09-23T11:52:12;21.20;52.30
42421;DHT22;28063;48.140;11.588;2022-09-23T11:55:11;21.10;52.80
42421;DHT22;28063;48.140;11.588;2022-09-23T11:57:44;20.90;53.10
42421;DHT22;28063;48.140;11.588;2022-09-23T12:00:25;20.70;53.90
42421;DHT22;28063;48.140;11.588;2022-09-23T12:05:51;20.40;54.60
42421;DHT22;28063;48.140;11.588;2022-09-23T12:08:33;20.40;54.40
42421;DHT22;28063;48.140;11.588;2022-09-23T12:13:46;20.20;55.00
42421;DHT22;28063;48.140;11.588;2022-09-23T12:16:45;20.10;55.10
42421;DHT22;28063;48.140;11.588;2022-09-23T12:27:36;20.20;56.20
42421;DHT22;28063;48.140;11.588;2022-09-23T12:30:18;20.50;55.70
42421;DHT22;28063;48.140;11.588;2022-09-23T12:32:44;20.70;54.90
42421;DHT22;28063;48.140;11.588;2022-09-23T12:35:29;20.80;55.00
42421;DHT22;28063;48.140;11.588;2022-09-23T12:38:00;20.70;54.90
42421;DHT22;28063;48.140;11.588;2022-09-23T12:40:36;20.80;55.10
42421;DHT22;28063;48.140;11.588;2022-09-23T12:43:29;20.90;55.00
42421;DHT22;28063;48.140;11.588;2022-09-23T12:46:15;20.80;54.70
42421;DHT22;28063;48.140;11.588;2022-09-23T12:48:56;20.80;54.80
42421;DHT22;28063;48.140;11.588;2022-09-23T12:51:33;20.90;54.60
42421;DHT22;28063;48.140;11.588;2022-09-23T12:56:55;20.90;54.80
42421;DHT22;28063;48.140;11.588;2022-09-23T13:01:54;21.00;53.50
42421;DHT22;28063;48.140;11.588;2022-09-23T13:07:26;21.20;54.00
42421;DHT22;28063;48.140;11.588;2022-09-23T13:10:01;21.30;53.40
42421;DHT22;28063;48.140;11.588;2022-09-23T13:12:33;21.30;53.30
42421;DHT22;28063;48.140;11.588;2022-09-23T13:15:04;21.20;53.80
42421;DHT22;28063;48.140;11.588;2022-09-23T13:17:38;21.30;53.40
42421;DHT22;28063;48.140;11.588;2022-09-23T13:25:30;21.30;53.30
42421;DHT22;28063;48.140;11.588;2022-09-23T13:28:00;21.30;54.00
42421;DHT22;28063;48.140;11.588;2022-09-23T13:30:27;21.40;53.40
42421;DHT22;28063;48.140;11.588;2022-09-23T13:33:05;21.40;53.90
42421;DHT22;28063;48.140;11.588;2022-09-23T13:35:47;21.60;53.30
42421;DHT22;28063;48.140;11.588;2022-09-23T13:38:23;21.70;53.00
42421;DHT22;28063;48.140;11.588;2022-09-23T13:41:14;21.50;53.60
42421;DHT22;28063;48.140;11.588;2022-09-23T13:43:55;21.20;54.20
42421;DHT22;28063;48.140;11.588;2022-09-23T13:46:30;21.20;54.80
42421;DHT22;28063;48.140;11.588;2022-09-23T13:48:57;21.30;54.50
42421;DHT22;28063;48.140;11.588;2022-09-23T13:51:32;21.10;54.30
42421;DHT22;28063;48.140;11.588;2022-09-23T13:54:00;21.00;55.20
42421;DHT22;28063;48.140;11.588;2022-09-23T13:56:29;21.10;55.00
42421;DHT22;28063;48.140;11.588;2022-09-23T14:02:10;21.40;54.60
42421;DHT22;28063;48.140;11.588;2022-09-23T14:04:37;21.40;54.00
42421;DHT22;28063;48.140;11.588;2022-09-23T14:07:10;21.40;53.90
42421;DHT22;28063;48.140;11.588;2022-09-23T14:09:43;21.30;54.30
42421;DHT22;28063;48.140;11.588;2022-09-23T14:12:10;21.30;54.70
42421;DHT22;28063;48.140;11.588;2022-09-23T14:14:38;21.40;54.10
42421;DHT22;28063;48.140;11.588;2022-09-23T14:17:05;21.40;55.10
42421;DHT22;28063;48.140;11.588;2022-09-23T14:19:34;21.40;54.90
42421;DHT22;28063;48.140;11.588;2022-09-23T14:22:00;21.60;54.70
42421;DHT22;28063;48.140;11.588;2022-09-23T14:24:32;21.70;54.00
42421;DHT22;28063;48.140;11.588;2022-09-23T14:27:00;21.40;54.00
42421;DHT22;28063;48.140;11.588;2022-09-23T14:29:30;21.20;55.40
42421;DHT22;28063;48.140;11.588;2022-09-23T14:32:10;21.10;55.70
42421;DHT22;28063;48.140;11.588;2022-09-23T14:37:48;20.90;55.80
42421;DHT22;28063;48.140;11.588;2022-09-23T14:40:37;20.80;56.00
42421;DHT22;28063;48.140;11.588;2022-09-23T14:45:51;21.10;55.70
42421;DHT22;28063;48.140;11.588;2022-09-23T14:48:33;21.00;55.60
42421;DHT22;28063;48.140;11.588;2022-09-23T14:51:02;20.90;55.60
42421;DHT22;28063;48.140;11.588;2022-09-23T15:01:38;21.20;54.80
42421;DHT22;28063;48.140;11.588;2022-09-23T15:06:59;20.50;56.30
42421;DHT22;28063;48.140;11.588;2022-09-23T15:09:31;20.60;56.80
42421;DHT22;28063;48.140;11.588;2022-09-23T15:12:05;20.70;56.80
42421;DHT22;28063;48.140;11.588;2022-09-23T15:14:37;20.50;57.00
42421;DHT22;28063;48.140;11.588;2022-09-23T15:17:26;20.70;56.90
42421;DHT22;28063;48.140;11.588;2022-09-23T15:19:59;20.80;56.60
42421;DHT22;28063;48.140;11.588;2022-09-23T15:22:27;21.00;55.80
42421;DHT22;28063;48.140;11.588;2022-09-23T15:25:07;20.90;56.30
42421;DHT22;28063;48.140;11.588;2022-09-23T15:27:35;20.80;55.80
42421;DHT22;28063;48.140;11.588;2022-09-23T15:30:10;20.60;56.80
42421;DHT22;28063;48.140;11.588;2022-09-23T15:32:38;20.30;57.80
42421;DHT22;28063;48.140;11.588;2022-09-23T15:35:04;20.10;58.30
42421;DHT22;28063;48.140;11.588;2022-09-23T15:37:30;19.80;58.60
42421;DHT22;28063;48.140;11.588;2022-09-23T15:39:56;19.50;58.90
42421;DHT22;28063;48.140;11.588;2022-09-23T15:42:22;19.40;59.10
42421;DHT22;28063;48.140;11.588;2022-09-23T15:44:48;19.30;59.50
42421;DHT22;28063;48.140;11.588;2022-09-23T15:47:17;19.20;60.10
42421;DHT22;28063;48.140;11.588;2022-09-23T15:49:44;19.10;60.60
42421;DHT22;28063;48.140;11.588;2022-09-23T15:52:12;19.00;61.20
42421;DHT22;28063;48.140;11.588;2022-09-23T15:54:40;19.10;61.50
42421;DHT22;28063;48.140;11.588;2022-09-23T15:57:07;19.10;61.90
42421;DHT22;28063;48.140;11.588;2022-09-23T15:59:33;19.00;62.10
42421;DHT22;28063;48.140;11.588;2022-09-23T16:02:03;18.80;62.10
42421;DHT22;28063;48.140;11.588;2022-09-23T16:04:32;18.60;62.80
42421;DHT22;28063;48.140;11.588;2022-09-23T16:06:58;18.40;63.30
42421;DHT22;28063;48.140;11.588;2022-09-23T16:09:24;18.20;63.90
42421;DHT22;28063;48.140;11.588;2022-09-23T16:11:52;18.00;64.40
42421;DHT22;28063;48.140;11.588;2022-09-23T16:14:18;17.70;65.10
42421;DHT22;28063;48.140;11.588;2022-09-23T16:16:44;17.60;65.80
42421;DHT22;28063;48.140;11.588;2022-09-23T16:19:14;17.50;66.40
42421;DHT22;28063;48.140;11.588;2022-09-23T16:21:42;17.30;66.80
42421;DHT22;28063;48.140;11.588;2022-09-23T16:24:14;17.20;67.40
42421;DHT22;28063;48.140;11.588;2022-09-23T16:26:41;17.10;68.00
42421;DHT22;28063;48.140;11.588;2022-09-23T16:29:08;16.90;68.40
42421;DHT22;28063;48.140;11.588;2022-09-23T16:31:35;16.90;68.90
42421;DHT22;28063;48.140;11.588;2022-09-23T16:34:01;16.80;69.20
42421;DHT22;28063;48.140;11.588;2022-09-23T16:36:29;16.60;69.50
42421;DHT22;28063;48.140;11.588;2022-09-23T16:38:56;16.50;69.70
42421;DHT22;28063;48.140;11.588;2022-09-23T16:41:24;16.40;70.10
42421;DHT22;28063;48.140;11.588;2022-09-23T16:43:52;16.40;71.00
42421;DHT22;28063;48.140;11.588;2022-09-23T16:46:18;16.30;71.80
42421;DHT22;28063;48.140;11.588;2022-09-23T16:48:45;16.20;72.20
42421;DHT22;28063;48.140;11.588;2022-09-23T16:51:29;16.00;72.30
42421;DHT22;28063;48.140;11.588;2022-09-23T16:53:56;16.00;72.60
42421;DHT22;28063;48.140;11.588;2022-09-23T16:56:25;15.90;72.70
42421;DHT22;28063;48.140;11.588;2022-09-23T16:58:52;15.80;72.80
42421;DHT22;28063;48.140;11.588;2022-09-23T17:01:24;15.70;73.10
42421;DHT22;28063;48.140;11.588;2022-09-23T17:04:08;15.70;73.50
42421;DHT22;28063;48.140;11.588;2022-09-23T17:06:41;15.60;74.30
42421;DHT22;28063;48.140;11.588;2022-09-23T17:09:06;15.50;75.00
42421;DHT22;28063;48.140;11.588;2022-09-23T17:11:32;15.30;75.80
42421;DHT22;28063;48.140;11.588;2022-09-23T17:13:58;15.30;76.80
42421;DHT22;28063;48.140;11.588;2022-09-23T17:16:33;15.20;76.40
42421;DHT22;28063;48.140;11.588;2022-09-23T17:19:03;15.10;76.20
42421;DHT22;28063;48.140;11.588;2022-09-23T17:21:29;15.10;76.20
42421;DHT22;28063;48.140;11.588;2022-09-23T17:23:55;15.00;76.50
42421;DHT22;28063;48.140;11.588;2022-09-23T17:26:22;14.90;76.80
42421;DHT22;28063;48.140;11.588;2022-09-23T17:28:54;14.90;77.40
42421;DHT22;28063;48.140;11.588;2022-09-23T17:31:21;14.80;77.90
42421;DHT22;28063;48.140;11.588;2022-09-23T17:33:47;14.80;78.50
42421;DHT22;28063;48.140;11.588;2022-09-23T17:36:13;14.70;78.80
42421;DHT22;28063;48.140;11.588;2022-09-23T17:38:43;14.60;79.30
42421;DHT22;28063;48.140;11.588;2022-09-23T17:41:10;14.50;80.00
42421;DHT22;28063;48.140;11.588;2022-09-23T17:43:36;14.50;80.70
42421;DHT22;28063;48.140;11.588;2022-09-23T17:46:10;14.40;81.00
42421;DHT22;28063;48.140;11.588;2022-09-23T17:48:38;14.40;81.40
42421;DHT22;28063;48.140;11.588;2022-09-23T17:51:09;14.30;81.90
42421;DHT22;28063;48.140;11.588;2022-09-23T17:53:37;14.30;82.30
42421;DHT22;28063;48.140;11.588;2022-09-23T17:56:17;14.20;82.80
42421;DHT22;28063;48.140;11.588;2022-09-23T17:58:44;14.20;83.30
42421;DHT22;28063;48.140;11.588;2022-09-23T18:01:12;14.20;83.90
42421;DHT22;28063;48.140;11.588;2022-09-23T18:03:39;14.10;84.10
42421;DHT22;28063;48.140;11.588;2022-09-23T18:06:14;14.10;84.40
42421;DHT22;28063;48.140;11.588;2022-09-23T18:08:42;14.10;84.90
42421;DHT22;28063;48.140;11.588;2022-09-23T18:11:18;14.00;85.50
42421;DHT22;28063;48.140;11.588;2022-09-23T18:13:52;13.90;86.00
42421;DHT22;28063;48.140;11.588;2022-09-23T18:16:19;13.90;86.60
42421;DHT22;28063;48.140;11.588;2022-09-23T18:18:49;13.80;87.00
42421;DHT22;28063;48.140;11.588;2022-09-23T18:21:15;13.70;87.10
42421;DHT22;28063;48.140;11.588;2022-09-23T18:23:41;13.70;87.20
42421;DHT22;28063;48.140;11.588;2022-09-23T18:26:18;13.70;87.40
42421;DHT22;28063;48.140;11.588;2022-09-23T18:28:44;13.70;87.50
42421;DHT22;28063;48.140;11.588;2022-09-23T18:31:10;13.60;88.20
42421;DHT22;28063;48.140;11.588;2022-09-23T18:33:36;13.60;89.00
42421;DHT22;28063;48.140;11.588;2022-09-23T18:36:06;13.50;89.20
42421;DHT22;28063;48.140;11.588;2022-09-23T18:38:33;13.50;90.00
42421;DHT22;28063;48.140;11.588;2022-09-23T18:40:59;13.50;89.40
42421;DHT22;28063;48.140;11.588;2022-09-23T18:43:27;13.40;89.30
42421;DHT22;28063;48.140;11.588;2022-09-23T18:46:01;13.40;89.50
42421;DHT22;28063;48.140;11.588;2022-09-23T18:48:28;13.40;89.80
42421;DHT22;28063;48.140;11.588;2022-09-23T18:51:14;13.30;89.70
42421;DHT22;28063;48.140;11.588;2022-09-23T18:53:41;13.30;90.20
42421;DHT22;28063;48.140;11.588;2022-09-23T18:56:12;13.30;90.40
42421;DHT22;28063;48.140;11.588;2022-09-23T18:58:56;13.30;90.50
42421;DHT22;28063;48.140;11.588;2022-09-23T19:01:22;13.20;90.90
42421;DHT22;28063;48.140;11.588;2022-09-23T19:03:55;13.20;91.10
42421;DHT22;28063;48.140;11.588;2022-09-23T19:06:21;13.10;91.30
42421;DHT22;28063;48.140;11.588;2022-09-23T19:08:52;13.00;91.40